sensor_id;sensor_type;location;lat;lon;timestamp;P1;durP1;ratioP1;P2;durP2;ratioP2
29254;SDS011;16277;48.890;2.306;2023-02-18T05:06:27;4.23;;;1.80;;
29254;SDS011;16277;48.890;2.306;2023-02-18T05:21:31;4.90;;;1.77;;
29254;SDS011;16277;48.890;2.306;2023-02-18T05:36:36;1.93;;;1.83;;
29254;SDS011;16277;48.890;2.306;2023-02-18T05:51:40;2.57;;;2.47;;
29254;SDS011;16277;48.890;2.306;2023-02-18T06:06:45;2.10;;;2.00;;
29254;SDS011;16277;48.890;2.306;2023-02-18T06:21:50;2.53;;;2.10;;
29254;SDS011;16277;48.890;2.306;2023-02-18T06:36:54;2.70;;;2.60;;
29254;SDS011;16277;48.890;2.306;2023-02-18T06:51:59;3.97;;;3.67;;
29254;SDS011;16277;48.890;2.306;2023-02-18T07:07:03;4.07;;;3.70;;
29254;SDS011;16277;48.890;2.306;2023-02-18T07:22:08;2.63;;;2.53;;
29254;SDS011;16277;48.890;2.306;2023-02-18T07:37:12;2.53;;;2.00;;
29254;SDS011;16277;48.890;2.306;2023-02-18T07:52:17;2.20;;;2.10;;
29254;SDS011;16277;48.890;2.306;2023-02-18T08:07:21;2.50;;;2.00;;
29254;SDS011;16277;48.890;2.306;2023-02-18T08:22:26;3.30;;;2.00;;
29254;SDS011;16277;48.890;2.306;2023-02-18T08:37:30;6.63;;;2.33;;
29254;SDS011;16277;48.890;2.306;2023-02-18T08:52:55;2.20;;;2.10;;
29254;SDS011;16277;48.890;2.306;2023-02-18T09:08:05;3.83;;;1.97;;
29254;SDS011;16277;48.890;2.306;2023-02-18T09:23:09;3.37;;;2.13;;
29254;SDS011;16277;48.890;2.306;2023-02-18T09:38:15;2.77;;;1.83;;
29254;SDS011;16277;48.890;2.306;2023-02-18T09:53:21;2.37;;;1.27;;
29254;SDS011;16277;48.890;2.306;2023-02-18T10:08:27;5.13;;;1.67;;
29254;SDS011;16277;48.890;2.306;2023-02-18T10:23:33;3.53;;;1.37;;
29254;SDS011;16277;48.890;2.306;2023-02-18T10:38:42;5.57;;;2.00;;
29254;SDS011;16277;48.890;2.306;2023-02-18T10:54:00;1.47;;;1.30;;
29254;SDS011;16277;48.890;2.306;2023-02-18T11:09:05;4.87;;;2.17;;
29254;SDS011;16277;48.890;2.306;2023-02-18T11:24:20;5.00;;;2.40;;
29254;SDS011;16277;48.890;2.306;2023-02-18T11:54:30;2.70;;;2.50;;
29254;SDS011;16277;48.890;2.306;2023-02-18T12:09:38;6.77;;;1.87;;
29254;SDS011;16277;48.890;2.306;2023-02-18T12:24:51;7.70;;;2.33;;
29254;SDS011;16277;48.890;2.306;2023-02-18T12:40:13;2.13;;;1.73;;
29254;SDS011;16277;48.890;2.306;2023-02-18T12:55:44;1.90;;;1.23;;
29254;SDS011;16277;48.890;2.306;2023-02-18T13:11:02;6.97;;;1.23;;
29254;SDS011;16277;48.890;2.306;2023-02-18T13:26:13;2.67;;;1.23;;
29254;SDS011;16277;48.890;2.306;2023-02-18T13:41:20;4.60;;;1.07;;
29254;SDS011;16277;48.890;2.306;2023-02-18T13:56:27;1.67;;;1.57;;
29254;SDS011;16277;48.890;2.306;2023-02-18T14:11:34;1.97;;;1.80;;
29254;SDS011;16277;48.890;2.306;2023-02-18T14:26:45;6.33;;;1.70;;
29254;SDS011;16277;48.890;2.306;2023-02-18T14:41:51;1.27;;;0.73;;
29254;SDS011;16277;48.890;2.306;2023-02-18T14:57:04;3.40;;;1.40;;
29254;SDS011;16277;48.890;2.306;2023-02-18T15:12:13;2.80;;;1.17;;
29254;SDS011;16277;48.890;2.306;2023-02-18T15:27:22;1.93;;;1.20;;
29254;SDS011;16277;48.890;2.306;2023-02-18T15:42:28;6.53;;;2.13;;
29254;SDS011;16277;48.890;2.306;2023-02-18T15:57:34;2.33;;;2.13;;
29254;SDS011;16277;48.890;2.306;2023-02-18T16:12:39;1.60;;;1.40;;
29254;SDS011;16277;48.890;2.306;2023-02-18T16:27:48;3.23;;;1.93;;
29254;SDS011;16277;48.890;2.306;2023-02-18T16:42:55;3.27;;;1.63;;
29254;SDS011;16277;48.890;2.306;2023-02-18T16:58:00;2.60;;;2.23;;
29254;SDS011;16277;48.890;2.306;2023-02-18T17:13:05;2.80;;;2.60;;
29254;SDS011;16277;48.890;2.306;2023-02-18T17:28:10;2.73;;;2.53;;
29254;SDS011;16277;48.890;2.306;2023-02-18T17:43:14;3.37;;;2.47;;
29254;SDS011;16277;48.890;2.306;2023-02-18T17:58:20;4.20;;;3.80;;
29254;SDS011;16277;48.890;2.306;2023-02-18T18:28:30;3.87;;;3.50;;
29254;SDS011;16277;48.890;2.306;2023-02-18T18:43:35;9.33;;;8.43;;
29254;SDS011;16277;48.890;2.306;2023-02-18T18:58:41;6.80;;;6.40;;
29254;SDS011;16277;48.890;2.306;2023-02-18T19:13:45;3.70;;;3.40;;
29254;SDS011;16277;48.890;2.306;2023-02-18T19:28:50;4.83;;;3.67;;
29254;SDS011;16277;48.890;2.306;2023-02-18T19:43:54;4.00;;;2.77;;
29254;SDS011;16277;48.890;2.306;2023-02-18T19:58:59;3.63;;;3.43;;
29254;SDS011;16277;48.890;2.306;2023-02-18T20:14:03;3.73;;;3.27;;
29254;SDS011;16277;48.890;2.306;2023-02-18T20:29:08;4.27;;;3.87;;
29254;SDS011;16277;48.890;2.306;2023-02-18T20:44:12;4.03;;;3.73;;
29254;SDS011;16277;48.890;2.306;2023-02-18T20:59:18;5.57;;;5.07;;
29254;SDS011;16277;48.890;2.306;2023-02-18T21:14:25;4.93;;;3.37;;
29254;SDS011;16277;48.890;2.306;2023-02-18T21:29:29;4.40;;;4.00;;
29254;SDS011;16277;48.890;2.306;2023-02-18T21:44:34;3.23;;;3.03;;
29254;SDS011;16277;48.890;2.306;2023-02-18T21:59:44;7.20;;;2.60;;
